ETHB

Buckeburg Airport

Germany
METAR ETHB 211320Z AUTO 03001KT 9999 // ////// 27/12 Q1011 ///
Observed Flight Rules
Jul-21 @ 13:20 UTC (21 minutes ago)
Wind Visibility
30° at 1 knots 10,000+ meters
Temperatures Readings
Current 27°C / 81°F
Dewpoint 12°C / 54°F
Humidity 39%
Altimeter 29.85" Hg
Pressure 1011 hPa
Elevation 78
METAR ETHB 211320Z AUTO 03001KT 9999 // ////// 27/12 Q1011 ///
Observed Flight Rules
Jul-21 @ 13:20 UTC
(21 minutes ago)
Wind Visibility
30° at 1 knots 10,000+ meters
Temperature Dewpoint
27°C / 81°F 12°C / 54°F
Humidity Altimeter Pressure
39% 29.85" Hg 1011 hPa